createdAt,value
2019-06-08T00:00:28.391Z,22.70
2019-06-08T00:02:58.309Z,22.70
2019-06-08T00:05:28.172Z,22.70
2019-06-08T00:07:58.083Z,22.70
2019-06-08T00:10:28.022Z,22.70
2019-06-08T00:12:57.861Z,22.70
2019-06-08T00:15:27.721Z,22.70
2019-06-08T00:17:59.445Z,22.70
2019-06-08T00:20:29.272Z,22.70
2019-06-08T00:22:59.138Z,22.70
2019-06-08T00:25:28.990Z,22.70
2019-06-08T00:27:58.849Z,22.70
2019-06-08T00:30:28.913Z,22.80
2019-06-08T00:32:58.879Z,22.70
2019-06-08T00:35:28.725Z,22.70
2019-06-08T00:37:58.663Z,22.70
2019-06-08T00:40:28.661Z,22.70
2019-06-08T00:42:58.598Z,22.70
2019-06-08T00:45:28.446Z,22.70
2019-06-08T00:47:58.414Z,22.80
2019-06-08T00:50:29.349Z,22.80
2019-06-08T00:52:59.417Z,22.70
2019-06-08T00:55:29.859Z,22.80
2019-06-08T00:57:59.984Z,22.80
2019-06-08T01:00:30.774Z,22.80
2019-06-08T01:03:00.803Z,22.70
2019-06-08T01:05:30.808Z,22.80
2019-06-08T01:08:00.649Z,22.70
2019-06-08T01:10:30.724Z,22.70
2019-06-08T01:13:00.569Z,22.80
2019-06-08T01:15:34.130Z,22.70
2019-06-08T01:18:04.211Z,22.70
2019-06-08T01:20:33.673Z,22.70
2019-06-08T01:23:03.579Z,22.70
2019-06-08T01:25:33.511Z,22.70
2019-06-08T01:28:03.689Z,22.70
2019-06-08T01:30:33.770Z,22.80
2019-06-08T01:33:03.678Z,22.80
2019-06-08T01:35:33.629Z,22.70
2019-06-08T01:38:03.565Z,22.80
2019-06-08T01:40:33.409Z,22.80
2019-06-08T01:43:03.340Z,22.70
2019-06-08T01:45:33.469Z,22.70
2019-06-08T01:48:19.246Z,22.70
2019-06-08T01:50:37.575Z,22.80
2019-06-08T01:53:07.501Z,22.80
2019-06-08T01:55:37.345Z,22.70
2019-06-08T01:58:07.287Z,22.70
2019-06-08T02:00:41.115Z,22.80
2019-06-08T02:03:08.833Z,22.80
2019-06-08T02:05:38.832Z,22.80
2019-06-08T02:08:08.831Z,22.80
2019-06-08T02:10:38.836Z,22.70
2019-06-08T02:13:09.029Z,22.80
2019-06-08T02:15:38.988Z,22.80
2019-06-08T02:18:08.899Z,22.80
2019-06-08T02:20:39.385Z,22.80
2019-06-08T02:23:10.435Z,22.70
2019-06-08T02:25:40.368Z,22.80
2019-06-08T02:28:10.283Z,22.80
2019-06-08T02:30:41.947Z,22.80
2019-06-08T02:33:11.767Z,22.80
2019-06-08T02:35:41.941Z,22.80
2019-06-08T02:38:12.082Z,22.80
2019-06-08T02:40:42.084Z,22.80
2019-06-08T02:43:12.220Z,22.80
2019-06-08T02:45:42.624Z,22.80
2019-06-08T02:48:12.541Z,22.80
2019-06-08T02:50:54.027Z,22.80
2019-06-08T02:53:25.075Z,22.80
2019-06-08T02:55:55.056Z,22.80
2019-06-08T02:58:25.142Z,22.80
2019-06-08T03:00:57.643Z,22.80
2019-06-08T03:03:31.600Z,22.80
2019-06-08T03:06:03.211Z,22.80
2019-06-08T03:08:39.081Z,22.80
2019-06-08T03:11:09.095Z,22.80
2019-06-08T03:13:42.476Z,22.80
2019-06-08T03:16:13.678Z,22.80
2019-06-08T03:18:43.522Z,22.80
2019-06-08T03:21:13.384Z,22.80
2019-06-08T03:23:43.581Z,22.80
2019-06-08T03:26:14.636Z,22.80
2019-06-08T03:28:44.580Z,22.80
2019-06-08T03:31:15.573Z,22.80
2019-06-08T03:33:53.944Z,22.80
2019-06-08T03:36:17.133Z,22.80
2019-06-08T03:38:47.033Z,22.80
2019-06-08T03:41:18.164Z,22.80
2019-06-08T03:43:48.058Z,22.80
2019-06-08T03:46:17.993Z,22.80
2019-06-08T03:48:47.905Z,22.80
2019-06-08T03:51:17.827Z,22.80
2019-06-08T03:53:47.763Z,22.80
2019-06-08T03:56:17.609Z,22.80
2019-06-08T03:58:48.125Z,22.80
2019-06-08T04:01:18.343Z,22.80
2019-06-08T04:03:50.176Z,22.80
2019-06-08T04:06:19.827Z,22.80
2019-06-08T04:08:49.964Z,22.70
2019-06-08T04:11:20.002Z,22.80
2019-06-08T04:13:50.123Z,22.80
2019-06-08T04:16:21.852Z,22.80
2019-06-08T04:18:51.841Z,22.80
2019-06-08T04:21:21.768Z,22.80
2019-06-08T04:23:51.681Z,22.80
2019-06-08T04:26:23.155Z,22.80
2019-06-08T04:28:54.136Z,22.80
2019-06-08T04:31:24.027Z,22.70
2019-06-08T04:33:53.947Z,22.70
2019-06-08T04:36:23.885Z,22.70
2019-06-08T04:38:53.881Z,22.70
2019-06-08T04:41:23.887Z,22.80
2019-06-08T04:43:54.885Z,22.70
2019-06-08T04:46:24.817Z,22.70
2019-06-08T04:48:54.732Z,22.70
2019-06-08T04:51:24.594Z,22.70
2019-06-08T04:53:54.436Z,22.70
2019-06-08T04:56:24.298Z,22.70
2019-06-08T04:58:54.136Z,22.70
2019-06-08T05:01:24.144Z,22.70
2019-06-08T05:03:54.086Z,22.70
2019-06-08T05:06:24.005Z,22.70
2019-06-08T05:08:53.915Z,22.70
2019-06-08T05:11:23.888Z,22.70
2019-06-08T05:13:54.871Z,22.70
2019-06-08T05:16:24.736Z,22.70
2019-06-08T05:18:54.654Z,22.70
2019-06-08T05:21:24.590Z,22.70
2019-06-08T05:23:58.672Z,22.70
2019-06-08T05:26:25.987Z,22.70
2019-06-08T05:28:55.852Z,22.70
2019-06-08T05:31:25.763Z,22.70
2019-06-08T05:33:55.631Z,22.70
2019-06-08T05:36:25.516Z,22.70
2019-06-08T05:38:55.413Z,22.70
2019-06-08T05:41:25.429Z,22.70
2019-06-08T05:43:55.287Z,22.70
2019-06-08T05:46:25.123Z,22.70
2019-06-08T05:48:54.989Z,22.70
2019-06-08T05:51:25.979Z,22.70
2019-06-08T05:53:55.916Z,22.70
2019-06-08T05:56:26.820Z,22.70
2019-06-08T05:58:56.687Z,22.70
2019-06-08T06:01:26.533Z,22.70
2019-06-08T06:03:56.405Z,22.70
2019-06-08T06:06:26.309Z,22.70
2019-06-08T06:08:56.172Z,22.70
2019-06-08T06:11:26.162Z,22.60
2019-06-08T06:13:56.163Z,22.60
2019-06-08T06:16:26.084Z,22.60
2019-06-08T06:18:56.020Z,22.60
2019-06-08T06:21:25.937Z,22.60
2019-06-08T06:23:55.967Z,22.60
2019-06-08T06:26:25.814Z,22.60
2019-06-08T06:28:55.816Z,22.60
2019-06-08T06:31:25.729Z,22.60
2019-06-08T06:33:55.735Z,22.60
2019-06-08T06:36:25.668Z,22.60
2019-06-08T06:38:55.529Z,22.60
2019-06-08T06:41:25.545Z,22.60
2019-06-08T06:43:55.408Z,22.60
2019-06-08T06:46:25.422Z,22.60
2019-06-08T06:48:55.515Z,22.60
2019-06-08T06:51:26.771Z,22.60
2019-06-08T06:53:56.919Z,22.60
2019-06-08T06:56:26.767Z,22.60
2019-06-08T06:58:57.245Z,22.60
2019-06-08T07:01:27.156Z,22.60
2019-06-08T07:03:57.083Z,22.60
2019-06-08T07:06:27.028Z,22.60
2019-06-08T07:08:56.889Z,22.60
2019-06-08T07:11:26.890Z,22.60
2019-06-08T07:13:56.929Z,22.60
2019-06-08T07:16:26.824Z,22.60
2019-06-08T07:18:56.688Z,22.60
2019-06-08T07:21:40.930Z,22.50
2019-06-08T07:23:58.793Z,22.60
2019-06-08T07:26:28.779Z,22.60
2019-06-08T07:28:58.992Z,22.50
2019-06-08T07:31:28.957Z,22.60
2019-06-08T07:33:59.984Z,22.60
2019-06-08T07:36:29.986Z,22.50
2019-06-08T07:38:59.917Z,22.50
2019-06-08T07:41:29.836Z,22.50
2019-06-08T07:43:59.767Z,22.50
2019-06-08T07:46:29.763Z,22.50
2019-06-08T07:48:59.696Z,22.50
2019-06-08T07:51:32.266Z,22.50
2019-06-08T07:54:02.274Z,22.50
2019-06-08T07:56:33.271Z,22.50
2019-06-08T07:59:03.099Z,22.50
2019-06-08T08:01:36.583Z,22.50
2019-06-08T08:04:03.962Z,22.50
2019-06-08T08:06:33.678Z,22.50
2019-06-08T08:09:05.334Z,22.50
2019-06-08T08:11:36.826Z,22.50
2019-06-08T08:14:06.868Z,22.50
2019-06-08T08:16:36.879Z,22.50
2019-06-08T08:19:06.870Z,22.50
2019-06-08T08:21:37.960Z,22.40
2019-06-08T08:24:08.371Z,22.50
2019-06-08T08:26:39.124Z,22.40
2019-06-08T08:29:09.236Z,22.40
2019-06-08T08:31:39.203Z,22.50
2019-06-08T08:34:09.192Z,22.40
2019-06-08T08:36:39.054Z,22.40
2019-06-08T08:39:09.071Z,22.40
2019-06-08T08:41:39.253Z,22.40
2019-06-08T08:44:09.207Z,22.20
2019-06-08T08:46:39.993Z,21.90
2019-06-08T08:49:12.941Z,21.60
2019-06-08T08:51:41.624Z,21.40
2019-06-08T08:54:11.556Z,21.20
2019-06-08T08:56:41.493Z,21.10
2019-06-08T08:59:11.425Z,20.90
2019-06-08T09:01:41.447Z,20.80
2019-06-08T09:04:11.316Z,20.70
2019-06-08T09:06:41.242Z,20.60
2019-06-08T09:09:11.197Z,20.60
2019-06-08T09:11:41.580Z,20.50
2019-06-08T09:14:14.145Z,20.40
2019-06-08T09:16:43.186Z,20.40
2019-06-08T09:19:13.125Z,20.40
2019-06-08T09:21:43.104Z,20.40
2019-06-08T09:24:13.121Z,20.30
2019-06-08T09:26:43.108Z,20.20
2019-06-08T09:29:13.042Z,20.20
2019-06-08T09:31:42.955Z,20.20
2019-06-08T09:34:15.534Z,20.20
2019-06-08T09:36:44.566Z,20.20
2019-06-08T09:39:14.524Z,20.20
2019-06-08T09:41:44.411Z,20.20
2019-06-08T09:44:14.382Z,20.20
2019-06-08T09:46:44.371Z,20.20
2019-06-08T09:49:14.237Z,20.20
2019-06-08T09:51:44.232Z,20.20
2019-06-08T09:54:14.208Z,20.20
2019-06-08T09:56:44.328Z,20.20
2019-06-08T09:59:15.494Z,20.30
2019-06-08T10:01:45.608Z,20.30
2019-06-08T10:04:15.547Z,20.20
2019-06-08T10:06:47.804Z,20.20
2019-06-08T10:09:18.624Z,20.30
2019-06-08T10:11:48.786Z,20.30
2019-06-08T10:14:18.940Z,20.40
2019-06-08T10:16:49.009Z,20.40
2019-06-08T10:19:18.958Z,20.40
2019-06-08T10:21:48.894Z,20.50
2019-06-08T10:24:18.877Z,20.50
2019-06-08T10:26:48.848Z,20.50
2019-06-08T10:29:18.714Z,20.50
2019-06-08T10:31:48.655Z,20.50
2019-06-08T10:34:18.588Z,20.50
2019-06-08T10:36:48.517Z,20.50
2019-06-08T10:39:18.447Z,20.50
2019-06-08T10:41:51.329Z,20.50
2019-06-08T10:44:19.991Z,20.60
2019-06-08T10:46:50.001Z,20.50
2019-06-08T10:49:21.066Z,20.60
2019-06-08T10:51:51.002Z,20.50
2019-06-08T10:54:20.940Z,20.50
2019-06-08T10:56:50.844Z,20.50
2019-06-08T10:59:20.784Z,20.50
2019-06-08T11:01:50.640Z,20.40
2019-06-08T11:04:21.647Z,20.40
2019-06-08T11:06:51.569Z,20.50
2019-06-08T11:09:21.647Z,20.50
2019-06-08T11:11:51.609Z,20.50
2019-06-08T11:14:22.809Z,20.50
2019-06-08T11:16:52.936Z,20.50
2019-06-08T11:19:26.166Z,20.50
2019-06-08T11:21:54.481Z,20.50
2019-06-08T11:24:25.417Z,20.50
2019-06-08T11:26:57.638Z,20.50
2019-06-08T11:29:27.572Z,20.50
2019-06-08T11:31:59.831Z,20.60
2019-06-08T11:34:29.940Z,20.60
2019-06-08T11:37:01.957Z,20.60
2019-06-08T11:39:31.461Z,20.60
2019-06-08T11:42:02.297Z,20.70
2019-06-08T11:44:32.452Z,20.70
2019-06-08T11:47:02.586Z,20.70
2019-06-08T11:49:32.600Z,20.70
2019-06-08T11:52:02.584Z,20.80
2019-06-08T11:54:37.280Z,20.90
2019-06-08T11:57:04.903Z,20.90
2019-06-08T11:59:37.545Z,20.90
2019-06-08T12:02:10.715Z,21.00
2019-06-08T12:04:39.224Z,21.00
2019-06-08T12:07:10.805Z,21.10
2019-06-08T12:09:40.805Z,21.20
2019-06-08T12:12:15.403Z,21.20
2019-06-08T12:14:42.431Z,21.30
2019-06-08T12:17:17.953Z,21.40
2019-06-08T12:19:43.985Z,21.40
2019-06-08T12:22:14.589Z,21.30
2019-06-08T12:24:44.609Z,21.40
2019-06-08T12:27:29.476Z,21.50
2019-06-08T12:29:50.022Z,21.60
2019-06-08T12:32:18.376Z,21.60
2019-06-08T12:34:48.537Z,21.50
2019-06-08T12:37:22.186Z,21.50
2019-06-08T12:39:50.161Z,21.50
2019-06-08T12:42:24.400Z,21.60
2019-06-08T12:44:51.646Z,21.70
2019-06-08T12:47:26.731Z,21.70
2019-06-08T12:49:53.742Z,21.80
2019-06-08T12:52:23.648Z,21.80
2019-06-08T12:55:02.474Z,21.70
2019-06-08T12:57:25.173Z,21.60
2019-06-08T12:59:55.156Z,21.60
2019-06-08T13:02:25.142Z,21.70
2019-06-08T13:04:54.983Z,21.70
2019-06-08T13:07:24.968Z,21.80
2019-06-08T13:09:54.909Z,21.80
2019-06-08T13:12:24.887Z,21.70
2019-06-08T13:14:54.846Z,21.70
2019-06-08T13:17:24.736Z,21.70
2019-06-08T13:19:58.052Z,21.80
2019-06-08T13:22:30.889Z,21.80
2019-06-08T13:25:15.160Z,21.90
2019-06-08T13:27:30.416Z,21.90
2019-06-08T13:30:00.416Z,22.00
2019-06-08T13:32:30.264Z,22.00
2019-06-08T13:35:00.128Z,22.10
2019-06-08T13:37:29.967Z,22.00
2019-06-08T13:39:59.841Z,22.10
2019-06-08T13:42:29.686Z,22.10
2019-06-08T13:44:59.690Z,22.10
2019-06-08T13:47:29.557Z,22.10
2019-06-08T13:49:59.468Z,22.10
2019-06-08T13:52:30.393Z,22.20
2019-06-08T13:55:00.319Z,22.10
2019-06-08T13:57:30.159Z,22.10
2019-06-08T14:00:00.015Z,22.20
2019-06-08T14:02:31.708Z,22.10
2019-06-08T14:05:01.559Z,22.20
2019-06-08T14:07:34.651Z,22.20
2019-06-08T14:10:03.813Z,22.10
2019-06-08T14:12:33.720Z,22.20
2019-06-08T14:15:05.321Z,22.20
2019-06-08T14:17:37.683Z,22.20
2019-06-08T14:20:08.149Z,22.20
2019-06-08T14:22:38.860Z,22.20
2019-06-08T14:25:10.849Z,22.20
2019-06-08T14:27:40.624Z,22.20
2019-06-08T14:30:10.560Z,22.20
2019-06-08T14:32:40.473Z,22.20
2019-06-08T14:35:10.414Z,22.20
2019-06-08T14:37:40.329Z,22.20
2019-06-08T14:40:10.555Z,22.20
2019-06-08T14:42:40.400Z,22.30
2019-06-08T14:45:11.126Z,22.20
2019-06-08T14:47:41.077Z,22.30
2019-06-08T14:50:11.642Z,22.30
2019-06-08T14:52:41.570Z,22.30
2019-06-08T14:55:11.629Z,22.30
2019-06-08T14:57:41.467Z,22.30
2019-06-08T15:00:12.280Z,22.30
2019-06-08T15:02:42.528Z,22.30
2019-06-08T15:05:12.608Z,22.30
2019-06-08T15:07:42.450Z,22.30
2019-06-08T15:10:12.549Z,22.30
2019-06-08T15:12:42.389Z,22.30
2019-06-08T15:15:12.694Z,22.30
2019-06-08T15:17:42.536Z,22.30
2019-06-08T15:20:12.537Z,22.30
2019-06-08T15:22:42.426Z,22.30
2019-06-08T15:25:12.699Z,22.30
2019-06-08T15:27:42.540Z,22.30
2019-06-08T15:30:13.150Z,22.30
2019-06-08T15:32:43.062Z,22.30
2019-06-08T15:35:12.996Z,22.30
2019-06-08T15:37:42.840Z,22.30
2019-06-08T15:40:13.236Z,22.30
2019-06-08T15:42:43.076Z,22.30
2019-06-08T15:45:13.351Z,22.30
2019-06-08T15:47:43.191Z,22.30
2019-06-08T15:50:13.244Z,22.30
2019-06-08T15:52:43.080Z,22.30
2019-06-08T15:55:13.188Z,22.30
2019-06-08T15:57:43.131Z,22.30
2019-06-08T16:00:13.932Z,22.30
2019-06-08T16:02:43.846Z,22.30
2019-06-08T16:05:13.869Z,22.30
2019-06-08T16:07:43.832Z,22.40
2019-06-08T16:10:14.232Z,22.40
2019-06-08T16:12:44.078Z,22.40
2019-06-08T16:15:14.396Z,22.40
2019-06-08T16:17:44.248Z,22.40
2019-06-08T16:20:14.190Z,22.40
2019-06-08T16:22:44.102Z,22.40
2019-06-08T16:25:14.102Z,22.40
2019-06-08T16:27:44.037Z,22.40
2019-06-08T16:30:14.145Z,22.40
2019-06-08T16:32:44.063Z,22.40
2019-06-08T16:35:14.064Z,22.50
2019-06-08T16:37:44.000Z,22.50
2019-06-08T16:40:14.296Z,22.50
2019-06-08T16:42:44.204Z,22.50
2019-06-08T16:45:14.540Z,22.50
2019-06-08T16:47:44.392Z,22.50
2019-06-08T16:50:23.970Z,22.50
2019-06-08T16:52:45.326Z,22.50
2019-06-08T16:55:15.252Z,22.50
2019-06-08T16:57:45.164Z,22.50
2019-06-08T17:00:30.846Z,22.60
2019-06-08T17:02:47.237Z,22.60
2019-06-08T17:05:17.167Z,22.60
2019-06-08T17:07:47.100Z,22.60
2019-06-08T17:10:17.097Z,22.60
2019-06-08T17:12:47.013Z,22.60
2019-06-08T17:15:17.587Z,22.60
2019-06-08T17:17:47.444Z,22.60
2019-06-08T17:20:17.702Z,22.60
2019-06-08T17:22:47.676Z,22.60
2019-06-08T17:25:17.699Z,22.60
2019-06-08T17:27:47.611Z,22.60
2019-06-08T17:30:17.641Z,22.60
2019-06-08T17:32:47.484Z,22.60
2019-06-08T17:35:17.423Z,22.60
2019-06-08T17:37:47.502Z,22.60
2019-06-08T17:40:17.507Z,22.60
2019-06-08T17:42:47.355Z,22.60
2019-06-08T17:45:17.637Z,22.50
2019-06-08T17:47:47.479Z,22.50
2019-06-08T17:50:17.643Z,22.50
2019-06-08T17:52:47.494Z,22.50
2019-06-08T17:55:17.600Z,22.50
2019-06-08T17:57:53.147Z,22.50
2019-06-08T18:00:19.547Z,22.50
2019-06-08T18:02:49.619Z,22.50
2019-06-08T18:05:19.552Z,22.50
2019-06-08T18:07:49.391Z,22.50
2019-06-08T18:10:19.327Z,22.50
2019-06-08T18:12:49.471Z,22.50
2019-06-08T18:15:20.718Z,22.50
2019-06-08T18:17:50.630Z,22.50
2019-06-08T18:20:20.712Z,22.50
2019-06-08T18:22:50.620Z,22.50
2019-06-08T18:25:20.548Z,22.50
2019-06-08T18:28:04.952Z,22.50
2019-06-08T18:30:24.474Z,22.40
2019-06-08T18:32:54.321Z,22.40
2019-06-08T18:35:24.179Z,22.50
2019-06-08T18:37:54.035Z,22.40
2019-06-08T18:40:24.137Z,22.40
2019-06-08T18:42:54.295Z,22.40
2019-06-08T18:45:24.228Z,22.40
2019-06-08T18:47:54.077Z,22.40
2019-06-08T18:50:24.011Z,22.40
2019-06-08T18:52:53.859Z,22.40
2019-06-08T18:55:27.523Z,22.50
2019-06-08T18:57:57.135Z,22.50
2019-06-08T19:00:41.399Z,22.50
2019-06-08T19:03:09.352Z,22.50
2019-06-08T19:05:42.561Z,22.50
2019-06-08T19:08:12.900Z,22.50
2019-06-08T19:10:44.055Z,22.50
2019-06-08T19:13:14.040Z,22.50
2019-06-08T19:15:46.447Z,22.50
2019-06-08T19:18:17.731Z,22.50
2019-06-08T19:20:48.816Z,22.50
2019-06-08T19:23:20.700Z,22.50
2019-06-08T19:25:49.717Z,22.40
2019-06-08T19:28:35.176Z,22.50
2019-06-08T19:30:52.254Z,22.50
2019-06-08T19:33:22.103Z,22.40
2019-06-08T19:35:53.903Z,22.40
2019-06-08T19:38:24.715Z,22.40
2019-06-08T19:40:54.573Z,22.40
2019-06-08T19:43:24.427Z,22.40
2019-06-08T19:45:54.307Z,22.40
2019-06-08T19:48:27.390Z,22.40
2019-06-08T19:50:58.184Z,22.40
2019-06-08T19:53:28.698Z,22.30
2019-06-08T19:55:58.810Z,22.30
2019-06-08T19:58:28.743Z,22.30
2019-06-08T20:00:59.744Z,22.30
2019-06-08T20:03:29.593Z,22.30
2019-06-08T20:05:59.543Z,22.30
2019-06-08T20:08:29.508Z,22.30
2019-06-08T20:10:59.417Z,22.20
2019-06-08T20:13:29.382Z,22.20
2019-06-08T20:16:02.193Z,22.20
2019-06-08T20:18:30.845Z,22.20
2019-06-08T20:21:00.790Z,22.20
2019-06-08T20:23:30.730Z,22.20
2019-06-08T20:26:00.939Z,22.20
2019-06-08T20:28:30.950Z,22.20
2019-06-08T20:31:00.962Z,22.10
2019-06-08T20:33:31.966Z,22.10
2019-06-08T20:36:01.879Z,22.10
2019-06-08T20:38:38.411Z,22.10
2019-06-08T20:41:03.389Z,22.10
2019-06-08T20:43:33.331Z,22.10
2019-06-08T20:46:03.194Z,22.10
2019-06-08T20:48:33.139Z,22.10
2019-06-08T20:51:02.996Z,22.10
2019-06-08T20:53:32.951Z,22.20
2019-06-08T20:56:02.882Z,22.10
2019-06-08T20:58:32.834Z,22.10
2019-06-08T21:01:02.770Z,22.10
2019-06-08T21:03:32.747Z,22.10
2019-06-08T21:06:02.771Z,22.10
2019-06-08T21:08:32.775Z,22.10
2019-06-08T21:11:02.726Z,22.10
2019-06-08T21:13:32.604Z,22.10
2019-06-08T21:16:02.474Z,22.10
2019-06-08T21:18:32.396Z,22.20
2019-06-08T21:21:02.347Z,22.20
2019-06-08T21:23:33.334Z,22.20
2019-06-08T21:26:03.424Z,22.20
2019-06-08T21:28:33.340Z,22.20
2019-06-08T21:31:03.215Z,22.20
2019-06-08T21:33:33.199Z,22.20
2019-06-08T21:36:04.929Z,22.10
2019-06-08T21:38:34.600Z,22.20
2019-06-08T21:41:04.475Z,22.20
2019-06-08T21:43:37.276Z,22.20
2019-06-08T21:46:07.858Z,22.20
2019-06-08T21:48:38.286Z,22.20
2019-06-08T21:51:08.477Z,22.30
2019-06-08T21:53:38.635Z,22.20
2019-06-08T21:56:08.529Z,22.20
2019-06-08T21:58:38.372Z,22.30
2019-06-08T22:01:08.540Z,22.20
2019-06-08T22:03:39.449Z,22.20
2019-06-08T22:06:09.313Z,22.20
2019-06-08T22:08:39.162Z,22.20
2019-06-08T22:11:09.362Z,22.30
2019-06-08T22:13:39.452Z,22.20
2019-06-08T22:16:09.317Z,22.20
2019-06-08T22:18:39.167Z,22.20
2019-06-08T22:21:09.095Z,22.20
2019-06-08T22:23:38.936Z,22.20
2019-06-08T22:26:08.803Z,22.20
2019-06-08T22:28:38.639Z,22.20
2019-06-08T22:31:08.523Z,22.20
2019-06-08T22:33:38.517Z,22.20
2019-06-08T22:36:09.070Z,22.20
2019-06-08T22:38:40.343Z,22.20
2019-06-08T22:41:10.268Z,22.20
2019-06-08T22:43:40.124Z,22.20
2019-06-08T22:46:10.610Z,22.20
2019-06-08T22:48:40.488Z,22.20
2019-06-08T22:51:10.400Z,22.30
2019-06-08T22:53:40.260Z,22.20
2019-06-08T22:56:10.095Z,22.20
2019-06-08T22:58:39.960Z,22.20
2019-06-08T23:01:11.557Z,22.20
2019-06-08T23:03:42.506Z,22.20
2019-06-08T23:06:12.342Z,22.20
2019-06-08T23:08:42.215Z,22.20
2019-06-08T23:11:12.046Z,22.20
2019-06-08T23:13:41.916Z,22.20
2019-06-08T23:16:11.838Z,22.20
2019-06-08T23:18:41.698Z,22.20
2019-06-08T23:21:12.698Z,22.20
2019-06-08T23:23:42.550Z,22.20
2019-06-08T23:26:12.489Z,22.20
2019-06-08T23:28:42.324Z,22.20
2019-06-08T23:31:21.362Z,22.20
2019-06-08T23:33:43.864Z,22.20
2019-06-08T23:38:45.335Z,22.20
2019-06-08T23:41:17.542Z,22.20
2019-06-08T23:43:48.026Z,22.20
2019-06-08T23:46:18.294Z,22.20
2019-06-08T23:48:48.500Z,22.20
2019-06-08T23:51:18.711Z,22.20
2019-06-08T23:53:48.631Z,22.20
2019-06-08T23:56:18.563Z,22.20
2019-06-08T23:58:48.516Z,22.20
